Terminal Aerodrome Forecast
Issued by NWS

Home | Current Version | Previous Version | Text Only | Print | Product List | Glossary On
Versions: 1 2 3 4 5 6 7 8 9 10 11 12
000
FTUS45 KGJT 260520
TAFMTJ
TAF
KMTJ 260520Z 2606/2706 11008KT P6SM SCT100 BKN250
     FM261500 19007KT P6SM SCT150 BKN250
     FM261800 24010G18KT P6SM SCT120 SCT250
     FM270100 17007KT P6SM BKN120 BKN200=

USA.gov is the U.S. government's official web portal to all federal, state and local government web resources and services.